sensor_id;sensor_type;location;lat;lon;timestamp;pressure;altitude;pressure_sealevel;temperature;humidity
21096;BME280;10706;49.036;12.112;2023-07-28T00:02:10;97073.41;;;16.29;99.69
21096;BME280;10706;49.036;12.112;2023-07-28T00:04:36;97072.59;;;16.28;99.71
21096;BME280;10706;49.036;12.112;2023-07-28T00:07:03;97076.06;;;16.10;100.00
21096;BME280;10706;49.036;12.112;2023-07-28T00:09:29;97063.84;;;16.18;100.00
21096;BME280;10706;49.036;12.112;2023-07-28T00:12:00;97065.41;;;16.24;99.67
21096;BME280;10706;49.036;12.112;2023-07-28T00:14:27;97058.56;;;16.31;99.21
21096;BME280;10706;49.036;12.112;2023-07-28T00:16:55;97065.03;;;16.30;98.89
21096;BME280;10706;49.036;12.112;2023-07-28T00:19:21;97072.59;;;16.28;98.92
21096;BME280;10706;49.036;12.112;2023-07-28T00:21:48;97063.66;;;16.33;99.05
21096;BME280;10706;49.036;12.112;2023-07-28T00:24:15;97072.28;;;16.11;99.52
21096;BME280;10706;49.036;12.112;2023-07-28T00:26:41;97069.06;;;16.09;99.90
21096;BME280;10706;49.036;12.112;2023-07-28T00:29:07;97080.97;;;16.03;100.00
21096;BME280;10706;49.036;12.112;2023-07-28T00:31:33;97080.22;;;15.97;100.00
21096;BME280;10706;49.036;12.112;2023-07-28T00:33:59;97072.97;;;15.98;100.00
21096;BME280;10706;49.036;12.112;2023-07-28T00:36:25;97079.63;;;16.05;100.00
21096;BME280;10706;49.036;12.112;2023-07-28T00:38:51;97074.50;;;16.04;100.00
21096;BME280;10706;49.036;12.112;2023-07-28T00:41:17;97075.66;;;15.98;100.00
21096;BME280;10706;49.036;12.112;2023-07-28T00:43:43;97069.31;;;16.12;100.00
21096;BME280;10706;49.036;12.112;2023-07-28T00:46:10;97068.72;;;16.16;100.00
21096;BME280;10706;49.036;12.112;2023-07-28T00:48:36;97072.16;;;16.21;100.00
21096;BME280;10706;49.036;12.112;2023-07-28T00:51:02;97071.41;;;16.16;100.00
21096;BME280;10706;49.036;12.112;2023-07-28T00:53:29;97071.03;;;16.03;100.00
21096;BME280;10706;49.036;12.112;2023-07-28T00:55:56;97062.13;;;16.03;100.00
21096;BME280;10706;49.036;12.112;2023-07-28T00:58:21;97059.75;;;16.01;100.00
21096;BME280;10706;49.036;12.112;2023-07-28T01:00:47;97059.28;;;15.94;100.00
21096;BME280;10706;49.036;12.112;2023-07-28T01:03:17;97058.13;;;16.00;100.00
21096;BME280;10706;49.036;12.112;2023-07-28T01:11:15;97047.81;;;16.07;100.00
21096;BME280;10706;49.036;12.112;2023-07-28T01:13:40;97040.00;;;16.06;100.00
21096;BME280;10706;49.036;12.112;2023-07-28T01:16:07;97049.63;;;16.12;100.00
21096;BME280;10706;49.036;12.112;2023-07-28T01:18:34;97042.53;;;15.97;100.00
21096;BME280;10706;49.036;12.112;2023-07-28T01:21:04;97043.28;;;16.03;100.00
21096;BME280;10706;49.036;12.112;2023-07-28T01:23:55;97034.84;;;16.09;100.00
21096;BME280;10706;49.036;12.112;2023-07-28T01:26:38;97033.38;;;15.98;100.00
21096;BME280;10706;49.036;12.112;2023-07-28T01:29:04;97029.75;;;15.84;100.00
21096;BME280;10706;49.036;12.112;2023-07-28T01:31:30;97019.22;;;15.87;100.00
21096;BME280;10706;49.036;12.112;2023-07-28T01:33:56;97032.31;;;15.99;100.00
21096;BME280;10706;49.036;12.112;2023-07-28T01:36:22;97024.84;;;15.91;100.00
21096;BME280;10706;49.036;12.112;2023-07-28T01:38:48;97021.81;;;15.98;100.00
21096;BME280;10706;49.036;12.112;2023-07-28T01:41:14;97022.44;;;15.89;100.00
21096;BME280;10706;49.036;12.112;2023-07-28T01:43:40;97019.69;;;15.94;100.00
21096;BME280;10706;49.036;12.112;2023-07-28T01:46:07;97022.88;;;15.97;100.00
21096;BME280;10706;49.036;12.112;2023-07-28T01:48:33;97017.16;;;16.03;100.00
21096;BME280;10706;49.036;12.112;2023-07-28T01:50:58;97010.06;;;15.88;100.00
21096;BME280;10706;49.036;12.112;2023-07-28T01:53:24;97017.19;;;15.79;100.00
21096;BME280;10706;49.036;12.112;2023-07-28T01:55:50;97019.81;;;15.84;100.00
21096;BME280;10706;49.036;12.112;2023-07-28T01:58:16;97025.13;;;15.89;100.00
21096;BME280;10706;49.036;12.112;2023-07-28T02:00:41;97027.91;;;15.84;100.00
21096;BME280;10706;49.036;12.112;2023-07-28T02:03:07;97012.81;;;15.83;100.00
21096;BME280;10706;49.036;12.112;2023-07-28T02:05:33;97017.28;;;15.93;100.00
21096;BME280;10706;49.036;12.112;2023-07-28T02:07:59;97032.00;;;16.01;100.00
21096;BME280;10706;49.036;12.112;2023-07-28T02:10:27;97026.75;;;15.90;100.00
21096;BME280;10706;49.036;12.112;2023-07-28T02:12:53;97010.41;;;16.06;100.00
21096;BME280;10706;49.036;12.112;2023-07-28T02:15:19;97023.16;;;15.95;100.00
21096;BME280;10706;49.036;12.112;2023-07-28T02:17:45;97023.13;;;16.00;100.00
21096;BME280;10706;49.036;12.112;2023-07-28T02:20:11;97019.78;;;16.08;100.00
21096;BME280;10706;49.036;12.112;2023-07-28T02:22:42;97023.91;;;16.01;100.00
21096;BME280;10706;49.036;12.112;2023-07-28T02:25:09;97020.06;;;15.88;100.00
21096;BME280;10706;49.036;12.112;2023-07-28T02:27:35;97017.13;;;15.84;100.00
21096;BME280;10706;49.036;12.112;2023-07-28T02:30:01;97017.19;;;15.79;100.00
21096;BME280;10706;49.036;12.112;2023-07-28T02:32:28;97017.72;;;15.76;100.00
21096;BME280;10706;49.036;12.112;2023-07-28T02:34:54;97019.22;;;15.87;100.00
21096;BME280;10706;49.036;12.112;2023-07-28T02:37:20;97017.72;;;15.76;100.00
21096;BME280;10706;49.036;12.112;2023-07-28T02:39:45;97015.38;;;15.69;100.00
21096;BME280;10706;49.036;12.112;2023-07-28T02:42:12;97014.25;;;15.76;100.00
21096;BME280;10706;49.036;12.112;2023-07-28T02:44:38;97010.06;;;15.88;100.00
21096;BME280;10706;49.036;12.112;2023-07-28T02:47:05;97014.25;;;16.00;100.00
21096;BME280;10706;49.036;12.112;2023-07-28T02:49:31;97020.66;;;16.04;100.00
21096;BME280;10706;49.036;12.112;2023-07-28T02:51:56;97010.41;;;16.06;100.00
21096;BME280;10706;49.036;12.112;2023-07-28T02:54:22;97012.53;;;16.09;100.00
21096;BME280;10706;49.036;12.112;2023-07-28T02:56:51;97014.25;;;16.00;100.00
21096;BME280;10706;49.036;12.112;2023-07-28T02:59:17;97007.84;;;15.96;100.00
21096;BME280;10706;49.036;12.112;2023-07-28T03:01:43;97015.91;;;15.96;100.00
21096;BME280;10706;49.036;12.112;2023-07-28T03:04:09;97013.97;;;16.01;100.00
21096;BME280;10706;49.036;12.112;2023-07-28T03:06:34;97023.06;;;16.05;100.00
21096;BME280;10706;49.036;12.112;2023-07-28T03:09:00;97013.81;;;16.11;100.00
21096;BME280;10706;49.036;12.112;2023-07-28T03:11:26;97020.38;;;16.05;100.00
21096;BME280;10706;49.036;12.112;2023-07-28T03:13:52;97015.22;;;16.09;100.00
21096;BME280;10706;49.036;12.112;2023-07-28T03:16:17;97018.94;;;16.13;100.00
21096;BME280;10706;49.036;12.112;2023-07-28T03:18:43;97015.66;;;16.16;100.00
21096;BME280;10706;49.036;12.112;2023-07-28T03:21:09;97013.75;;;15.98;100.00
21096;BME280;10706;49.036;12.112;2023-07-28T03:23:35;97016.22;;;15.65;100.00
21096;BME280;10706;49.036;12.112;2023-07-28T03:26:01;97012.22;;;15.62;100.00
21096;BME280;10706;49.036;12.112;2023-07-28T03:28:27;97014.47;;;15.79;100.00
21096;BME280;10706;49.036;12.112;2023-07-28T03:30:52;97011.78;;;15.79;100.00
21096;BME280;10706;49.036;12.112;2023-07-28T03:33:18;97018.09;;;15.93;100.00
21096;BME280;10706;49.036;12.112;2023-07-28T03:35:44;97022.31;;;16.00;100.00
21096;BME280;10706;49.036;12.112;2023-07-28T03:38:10;97015.50;;;15.83;100.00
21096;BME280;10706;49.036;12.112;2023-07-28T03:40:36;97008.34;;;15.98;100.00
21096;BME280;10706;49.036;12.112;2023-07-28T03:43:02;97007.19;;;16.04;100.00
21096;BME280;10706;49.036;12.112;2023-07-28T03:45:28;97013.97;;;16.01;100.00
21096;BME280;10706;49.036;12.112;2023-07-28T03:47:54;97007.97;;;16.04;100.00
21096;BME280;10706;49.036;12.112;2023-07-28T03:50:20;97017.97;;;16.04;100.00
21096;BME280;10706;49.036;12.112;2023-07-28T03:52:46;97020.84;;;15.88;100.00
21096;BME280;10706;49.036;12.112;2023-07-28T03:55:11;97024.09;;;15.85;100.00
21096;BME280;10706;49.036;12.112;2023-07-28T03:57:37;97013.31;;;15.85;100.00
21096;BME280;10706;49.036;12.112;2023-07-28T04:00:04;97012.25;;;15.86;100.00
21096;BME280;10706;49.036;12.112;2023-07-28T04:02:29;97017.75;;;15.71;100.00
21096;BME280;10706;49.036;12.112;2023-07-28T04:04:58;97014.44;;;15.55;100.00
21096;BME280;10706;49.036;12.112;2023-07-28T04:07:24;97018.75;;;15.56;100.00
21096;BME280;10706;49.036;12.112;2023-07-28T04:09:49;97022.09;;;15.43;100.00
21096;BME280;10706;49.036;12.112;2023-07-28T04:12:15;97021.56;;;15.41;100.00
21096;BME280;10706;49.036;12.112;2023-07-28T04:14:41;97019.81;;;15.26;100.00
21096;BME280;10706;49.036;12.112;2023-07-28T04:17:06;97028.94;;;15.30;100.00
21096;BME280;10706;49.036;12.112;2023-07-28T04:19:32;97021.00;;;15.44;100.00
21096;BME280;10706;49.036;12.112;2023-07-28T04:22:00;97026.59;;;15.52;100.00
21096;BME280;10706;49.036;12.112;2023-07-28T04:24:26;97025.69;;;15.33;100.00
21096;BME280;10706;49.036;12.112;2023-07-28T04:26:53;97027.38;;;15.24;100.00
21096;BME280;10706;49.036;12.112;2023-07-28T04:29:18;97028.44;;;15.52;100.00
21096;BME280;10706;49.036;12.112;2023-07-28T04:31:44;97028.09;;;15.64;100.00
21096;BME280;10706;49.036;12.112;2023-07-28T04:34:10;97030.13;;;15.72;100.00
21096;BME280;10706;49.036;12.112;2023-07-28T04:36:36;97024.81;;;15.67;100.00
21096;BME280;10706;49.036;12.112;2023-07-28T04:39:01;97030.53;;;15.60;100.00
21096;BME280;10706;49.036;12.112;2023-07-28T04:41:27;97034.75;;;15.42;100.00
21096;BME280;10706;49.036;12.112;2023-07-28T04:43:53;97030.53;;;15.60;100.00
21096;BME280;10706;49.036;12.112;2023-07-28T04:46:19;97038.53;;;15.41;100.00
21096;BME280;10706;49.036;12.112;2023-07-28T04:48:46;97033.44;;;15.40;100.00
21096;BME280;10706;49.036;12.112;2023-07-28T04:51:12;97026.88;;;15.51;100.00
21096;BME280;10706;49.036;12.112;2023-07-28T04:53:37;97029.38;;;15.66;100.00
21096;BME280;10706;49.036;12.112;2023-07-28T04:56:03;97025.31;;;15.69;100.00
21096;BME280;10706;49.036;12.112;2023-07-28T04:58:29;97023.69;;;15.73;100.00
21096;BME280;10706;49.036;12.112;2023-07-28T05:00:55;97024.81;;;15.67;100.00
21096;BME280;10706;49.036;12.112;2023-07-28T05:03:21;97029.59;;;15.99;100.00
21096;BME280;10706;49.036;12.112;2023-07-28T05:05:47;97039.38;;;16.14;100.00
21096;BME280;10706;49.036;12.112;2023-07-28T05:08:13;97037.34;;;16.25;100.00
21096;BME280;10706;49.036;12.112;2023-07-28T05:10:40;97036.50;;;16.29;100.00
21096;BME280;10706;49.036;12.112;2023-07-28T05:13:06;97042.97;;;16.47;100.00
21096;BME280;10706;49.036;12.112;2023-07-28T05:15:32;97034.03;;;16.52;100.00
21096;BME280;10706;49.036;12.112;2023-07-28T05:17:58;97042.91;;;16.71;100.00
21096;BME280;10706;49.036;12.112;2023-07-28T05:20:23;97042.47;;;17.02;100.00
21096;BME280;10706;49.036;12.112;2023-07-28T05:22:49;97041.97;;;16.81;98.33
21096;BME280;10706;49.036;12.112;2023-07-28T05:25:15;97045.06;;;16.94;97.95
21096;BME280;10706;49.036;12.112;2023-07-28T05:27:40;97056.41;;;17.09;98.04
21096;BME280;10706;49.036;12.112;2023-07-28T05:30:07;97058.81;;;17.11;97.72
21096;BME280;10706;49.036;12.112;2023-07-28T05:32:33;97061.72;;;17.15;96.79
21096;BME280;10706;49.036;12.112;2023-07-28T05:34:59;97056.31;;;17.15;96.99
21096;BME280;10706;49.036;12.112;2023-07-28T05:37:24;97061.13;;;17.18;96.48
21096;BME280;10706;49.036;12.112;2023-07-28T05:39:50;97056.75;;;17.22;95.24
21096;BME280;10706;49.036;12.112;2023-07-28T05:42:16;97067.28;;;17.37;95.89
21096;BME280;10706;49.036;12.112;2023-07-28T05:44:42;97059.78;;;17.34;96.05
21096;BME280;10706;49.036;12.112;2023-07-28T05:47:11;97062.69;;;17.38;96.47
21096;BME280;10706;49.036;12.112;2023-07-28T05:49:37;97053.63;;;17.47;95.95
21096;BME280;10706;49.036;12.112;2023-07-28T05:52:03;97053.44;;;17.58;95.29
21096;BME280;10706;49.036;12.112;2023-07-28T05:54:30;97058.91;;;17.53;95.22
21096;BME280;10706;49.036;12.112;2023-07-28T05:56:55;97059.97;;;17.38;94.42
21096;BME280;10706;49.036;12.112;2023-07-28T05:59:21;97063.22;;;17.54;95.11
21096;BME280;10706;49.036;12.112;2023-07-28T06:01:47;97066.94;;;17.58;93.81
21096;BME280;10706;49.036;12.112;2023-07-28T06:04:12;97062.41;;;17.86;92.74
21096;BME280;10706;49.036;12.112;2023-07-28T06:06:38;97056.50;;;17.98;92.94
21096;BME280;10706;49.036;12.112;2023-07-28T06:09:04;97058.13;;;17.85;91.93
21096;BME280;10706;49.036;12.112;2023-07-28T06:11:29;97060.00;;;17.84;91.62
21096;BME280;10706;49.036;12.112;2023-07-28T06:13:55;97061.19;;;17.92;91.62
21096;BME280;10706;49.036;12.112;2023-07-28T06:16:21;97066.72;;;18.01;91.35
21096;BME280;10706;49.036;12.112;2023-07-28T06:18:47;97063.31;;;18.09;91.69
21096;BME280;10706;49.036;12.112;2023-07-28T06:21:12;97058.31;;;18.16;91.05
21096;BME280;10706;49.036;12.112;2023-07-28T06:23:38;97073.72;;;18.16;91.46
21096;BME280;10706;49.036;12.112;2023-07-28T06:26:04;97073.53;;;18.12;92.25
21096;BME280;10706;49.036;12.112;2023-07-28T06:28:30;97079.94;;;18.30;91.98
21096;BME280;10706;49.036;12.112;2023-07-28T06:30:57;97091.13;;;18.37;90.45
21096;BME280;10706;49.036;12.112;2023-07-28T06:33:24;97087.63;;;18.37;91.73
21096;BME280;10706;49.036;12.112;2023-07-28T06:35:50;97090.28;;;18.64;90.95
21096;BME280;10706;49.036;12.112;2023-07-28T06:38:17;97100.50;;;18.81;89.74
21096;BME280;10706;49.036;12.112;2023-07-28T06:40:43;97095.09;;;18.81;89.00
21096;BME280;10706;49.036;12.112;2023-07-28T06:43:10;97101.63;;;19.03;88.94
21096;BME280;10706;49.036;12.112;2023-07-28T06:45:35;97115.16;;;18.25;86.99
21096;BME280;10706;49.036;12.112;2023-07-28T06:48:04;97115.72;;;18.63;88.02
21096;BME280;10706;49.036;12.112;2023-07-28T06:50:30;97109.34;;;18.18;89.30
21096;BME280;10706;49.036;12.112;2023-07-28T06:52:57;97099.63;;;18.44;88.74
21096;BME280;10706;49.036;12.112;2023-07-28T06:55:23;97110.72;;;18.43;90.69
21096;BME280;10706;49.036;12.112;2023-07-28T06:57:49;97108.97;;;18.24;90.02
21096;BME280;10706;49.036;12.112;2023-07-28T07:00:15;97109.53;;;18.49;89.66
21096;BME280;10706;49.036;12.112;2023-07-28T07:02:41;97120.94;;;18.18;89.07
21096;BME280;10706;49.036;12.112;2023-07-28T07:05:07;97114.34;;;18.38;88.62
21096;BME280;10706;49.036;12.112;2023-07-28T07:07:33;97103.13;;;18.31;88.82
21096;BME280;10706;49.036;12.112;2023-07-28T07:09:59;97102.59;;;18.71;88.08
21096;BME280;10706;49.036;12.112;2023-07-28T07:12:25;97104.09;;;18.91;88.58
21096;BME280;10706;49.036;12.112;2023-07-28T07:14:51;97105.66;;;19.28;88.16
21096;BME280;10706;49.036;12.112;2023-07-28T07:17:17;97096.88;;;19.45;86.84
21096;BME280;10706;49.036;12.112;2023-07-28T07:19:43;97093.97;;;19.41;84.73
21096;BME280;10706;49.036;12.112;2023-07-28T07:22:09;97100.34;;;19.00;85.18
21096;BME280;10706;49.036;12.112;2023-07-28T07:24:35;97105.78;;;19.23;84.84
21096;BME280;10706;49.036;12.112;2023-07-28T07:27:01;97106.38;;;19.65;86.32
21096;BME280;10706;49.036;12.112;2023-07-28T07:29:26;97115.56;;;19.33;82.66
21096;BME280;10706;49.036;12.112;2023-07-28T07:31:52;97108.75;;;19.13;83.31
21096;BME280;10706;49.036;12.112;2023-07-28T07:34:22;97109.19;;;18.78;85.17
21096;BME280;10706;49.036;12.112;2023-07-28T07:36:49;97108.84;;;19.08;85.10
21096;BME280;10706;49.036;12.112;2023-07-28T07:39:15;97115.53;;;19.10;84.09
21096;BME280;10706;49.036;12.112;2023-07-28T07:41:41;97109.22;;;19.15;84.59
21096;BME280;10706;49.036;12.112;2023-07-28T07:44:06;97109.25;;;19.69;83.24
21096;BME280;10706;49.036;12.112;2023-07-28T07:46:32;97108.25;;;19.56;84.22
21096;BME280;10706;49.036;12.112;2023-07-28T07:48:58;97120.25;;;19.18;83.44
21096;BME280;10706;49.036;12.112;2023-07-28T07:51:24;97123.63;;;19.24;83.99
21096;BME280;10706;49.036;12.112;2023-07-28T07:53:50;97119.91;;;19.42;83.45
21096;BME280;10706;49.036;12.112;2023-07-28T07:56:16;97110.63;;;19.57;82.57
21096;BME280;10706;49.036;12.112;2023-07-28T07:58:42;97116.69;;;19.77;80.82
21096;BME280;10706;49.036;12.112;2023-07-28T08:01:08;97115.03;;;19.98;81.35
21096;BME280;10706;49.036;12.112;2023-07-28T08:03:34;97118.41;;;19.73;79.96
21096;BME280;10706;49.036;12.112;2023-07-28T08:06:02;97119.63;;;20.29;80.05
21096;BME280;10706;49.036;12.112;2023-07-28T08:08:28;97124.28;;;20.37;78.43
21096;BME280;10706;49.036;12.112;2023-07-28T08:10:54;97126.97;;;20.69;78.34
21096;BME280;10706;49.036;12.112;2023-07-28T08:13:20;97125.00;;;20.61;76.97
21096;BME280;10706;49.036;12.112;2023-07-28T08:15:46;97118.59;;;20.56;77.08
21096;BME280;10706;49.036;12.112;2023-07-28T08:18:15;97127.97;;;20.42;77.91
21096;BME280;10706;49.036;12.112;2023-07-28T08:20:41;97128.06;;;20.85;75.70
21096;BME280;10706;49.036;12.112;2023-07-28T08:23:06;97131.94;;;21.28;75.56
21096;BME280;10706;49.036;12.112;2023-07-28T08:25:33;97137.72;;;21.52;74.97
21096;BME280;10706;49.036;12.112;2023-07-28T08:28:00;97137.50;;;21.84;73.78
21096;BME280;10706;49.036;12.112;2023-07-28T08:30:26;97138.69;;;21.48;72.94
21096;BME280;10706;49.036;12.112;2023-07-28T08:32:52;97146.81;;;21.30;74.72
21096;BME280;10706;49.036;12.112;2023-07-28T08:35:18;97150.50;;;21.52;74.40
21096;BME280;10706;49.036;12.112;2023-07-28T08:37:44;97153.97;;;21.26;74.52
21096;BME280;10706;49.036;12.112;2023-07-28T08:40:10;97148.56;;;21.52;74.92
21096;BME280;10706;49.036;12.112;2023-07-28T08:42:39;97154.66;;;21.67;74.95
21096;BME280;10706;49.036;12.112;2023-07-28T08:45:06;97156.84;;;21.82;73.60
21096;BME280;10706;49.036;12.112;2023-07-28T08:47:34;97164.22;;;21.29;76.36
21096;BME280;10706;49.036;12.112;2023-07-28T08:50:00;97166.44;;;21.01;75.14
21096;BME280;10706;49.036;12.112;2023-07-28T08:52:26;97175.03;;;20.94;76.19
21096;BME280;10706;49.036;12.112;2023-07-28T08:54:53;97166.69;;;20.65;77.16
21096;BME280;10706;49.036;12.112;2023-07-28T08:57:19;97164.69;;;21.14;76.58
21096;BME280;10706;49.036;12.112;2023-07-28T08:59:46;97172.94;;;20.83;75.36
21096;BME280;10706;49.036;12.112;2023-07-28T09:02:17;97175.19;;;20.89;76.27
21096;BME280;10706;49.036;12.112;2023-07-28T09:04:46;97174.25;;;20.94;76.65
21096;BME280;10706;49.036;12.112;2023-07-28T09:07:13;97169.09;;;20.75;76.02
21096;BME280;10706;49.036;12.112;2023-07-28T09:09:39;97177.47;;;21.05;76.77
21096;BME280;10706;49.036;12.112;2023-07-28T09:12:07;97187.47;;;20.47;77.08
21096;BME280;10706;49.036;12.112;2023-07-28T09:14:36;97190.47;;;20.68;78.24
21096;BME280;10706;49.036;12.112;2023-07-28T09:17:12;97190.69;;;20.49;78.38
21096;BME280;10706;49.036;12.112;2023-07-28T09:19:56;97201.66;;;20.75;78.69
21096;BME280;10706;49.036;12.112;2023-07-28T09:22:22;97197.19;;;20.70;79.79
21096;BME280;10706;49.036;12.112;2023-07-28T09:24:49;97196.56;;;20.42;82.17
21096;BME280;10706;49.036;12.112;2023-07-28T09:27:25;97202.66;;;20.16;83.63
21096;BME280;10706;49.036;12.112;2023-07-28T09:29:53;97198.81;;;20.17;83.23
21096;BME280;10706;49.036;12.112;2023-07-28T09:32:33;97197.91;;;20.22;82.23
21096;BME280;10706;49.036;12.112;2023-07-28T09:35:10;97193.47;;;20.26;85.35
21096;BME280;10706;49.036;12.112;2023-07-28T09:37:39;97207.47;;;19.97;84.89
21096;BME280;10706;49.036;12.112;2023-07-28T09:40:14;97213.44;;;19.62;86.97
21096;BME280;10706;49.036;12.112;2023-07-28T09:42:41;97210.72;;;19.76;87.76
21096;BME280;10706;49.036;12.112;2023-07-28T09:45:08;97205.88;;;19.37;89.37
21096;BME280;10706;49.036;12.112;2023-07-28T09:47:39;97210.00;;;19.34;90.98
21096;BME280;10706;49.036;12.112;2023-07-28T09:50:08;97209.84;;;19.17;90.63
21096;BME280;10706;49.036;12.112;2023-07-28T09:52:42;97209.47;;;19.10;90.48
21096;BME280;10706;49.036;12.112;2023-07-28T09:55:10;97216.84;;;19.18;92.17
21096;BME280;10706;49.036;12.112;2023-07-28T09:57:50;97216.66;;;19.14;92.13
21096;BME280;10706;49.036;12.112;2023-07-28T10:00:22;97222.13;;;19.37;90.91
21096;BME280;10706;49.036;12.112;2023-07-28T10:02:49;97204.50;;;19.26;92.10
21096;BME280;10706;49.036;12.112;2023-07-28T10:05:15;97204.72;;;19.52;91.42
21096;BME280;10706;49.036;12.112;2023-07-28T10:07:43;97206.06;;;19.40;91.99
21096;BME280;10706;49.036;12.112;2023-07-28T10:10:12;97194.63;;;19.43;92.69
21096;BME280;10706;49.036;12.112;2023-07-28T10:12:46;97199.78;;;19.68;92.08
21096;BME280;10706;49.036;12.112;2023-07-28T10:15:20;97208.69;;;19.68;90.80
21096;BME280;10706;49.036;12.112;2023-07-28T10:17:54;97203.06;;;20.01;89.75
21096;BME280;10706;49.036;12.112;2023-07-28T10:20:38;97209.41;;;20.28;89.29
21096;BME280;10706;49.036;12.112;2023-07-28T10:23:05;97202.28;;;20.72;86.88
21096;BME280;10706;49.036;12.112;2023-07-28T10:25:37;97204.59;;;21.05;81.96
21096;BME280;10706;49.036;12.112;2023-07-28T10:28:05;97202.66;;;20.96;82.94
21096;BME280;10706;49.036;12.112;2023-07-28T10:30:55;97201.75;;;21.27;81.37
21096;BME280;10706;49.036;12.112;2023-07-28T10:33:38;97194.53;;;22.19;78.05
21096;BME280;10706;49.036;12.112;2023-07-28T10:36:33;97203.53;;;22.87;74.13
21096;BME280;10706;49.036;12.112;2023-07-28T10:39:23;97188.88;;;23.52;71.01
21096;BME280;10706;49.036;12.112;2023-07-28T10:42:07;97191.84;;;23.80;68.90
21096;BME280;10706;49.036;12.112;2023-07-28T10:44:34;97195.72;;;23.37;69.41
21096;BME280;10706;49.036;12.112;2023-07-28T10:47:10;97200.59;;;23.01;70.81
21096;BME280;10706;49.036;12.112;2023-07-28T10:49:37;97203.53;;;22.87;70.11
21096;BME280;10706;49.036;12.112;2023-07-28T10:52:03;97204.41;;;22.79;69.41
21096;BME280;10706;49.036;12.112;2023-07-28T10:54:31;97201.56;;;22.11;70.54
21096;BME280;10706;49.036;12.112;2023-07-28T10:57:02;97192.75;;;22.23;71.01
21096;BME280;10706;49.036;12.112;2023-07-28T10:59:30;97200.69;;;22.45;70.14
21096;BME280;10706;49.036;12.112;2023-07-28T11:01:58;97197.56;;;22.64;69.72
21096;BME280;10706;49.036;12.112;2023-07-28T11:04:24;97197.03;;;22.41;69.39
21096;BME280;10706;49.036;12.112;2023-07-28T11:06:50;97197.25;;;22.19;71.68
21096;BME280;10706;49.036;12.112;2023-07-28T11:09:21;97195.81;;;22.30;70.03
21096;BME280;10706;49.036;12.112;2023-07-28T11:11:48;97199.53;;;22.55;70.39
21096;BME280;10706;49.036;12.112;2023-07-28T11:14:16;97191.13;;;22.22;71.34
21096;BME280;10706;49.036;12.112;2023-07-28T11:16:43;97191.28;;;22.73;70.02
21096;BME280;10706;49.036;12.112;2023-07-28T11:19:12;97193.34;;;22.76;69.45
21096;BME280;10706;49.036;12.112;2023-07-28T11:21:40;97197.84;;;22.33;70.84
21096;BME280;10706;49.036;12.112;2023-07-28T11:24:10;97196.19;;;22.49;69.19
21096;BME280;10706;49.036;12.112;2023-07-28T11:26:38;97197.03;;;22.41;69.02
21096;BME280;10706;49.036;12.112;2023-07-28T11:29:04;97196.03;;;22.84;68.91
21096;BME280;10706;49.036;12.112;2023-07-28T11:31:30;97183.75;;;23.29;66.21
21096;BME280;10706;49.036;12.112;2023-07-28T11:33:56;97174.50;;;23.42;67.70
21096;BME280;10706;49.036;12.112;2023-07-28T11:36:27;97169.88;;;23.43;67.41
21096;BME280;10706;49.036;12.112;2023-07-28T11:38:55;97176.56;;;23.88;67.13
21096;BME280;10706;49.036;12.112;2023-07-28T11:41:22;97178.41;;;23.96;65.68
21096;BME280;10706;49.036;12.112;2023-07-28T11:43:49;97182.38;;;24.44;66.80
21096;BME280;10706;49.036;12.112;2023-07-28T11:46:42;97185.16;;;24.11;64.03
21096;BME280;10706;49.036;12.112;2023-07-28T11:49:19;97181.34;;;24.98;60.55
21096;BME280;10706;49.036;12.112;2023-07-28T11:51:52;97173.94;;;24.37;59.61
21096;BME280;10706;49.036;12.112;2023-07-28T11:54:22;97182.00;;;23.66;63.06
21096;BME280;10706;49.036;12.112;2023-07-28T11:56:49;97176.59;;;24.00;61.51
21096;BME280;10706;49.036;12.112;2023-07-28T11:59:17;97181.06;;;24.04;61.26
21096;BME280;10706;49.036;12.112;2023-07-28T12:01:59;97182.34;;;23.86;62.93
21096;BME280;10706;49.036;12.112;2023-07-28T12:04:31;97169.25;;;24.25;60.51
21096;BME280;10706;49.036;12.112;2023-07-28T12:07:09;97177.88;;;24.15;60.09
21096;BME280;10706;49.036;12.112;2023-07-28T12:12:15;97179.44;;;24.98;58.35
21096;BME280;10706;49.036;12.112;2023-07-28T12:14:42;97168.28;;;24.42;58.81
21096;BME280;10706;49.036;12.112;2023-07-28T12:17:21;97174.78;;;24.62;58.22
21096;BME280;10706;49.036;12.112;2023-07-28T12:20:08;97160.19;;;24.82;57.97
21096;BME280;10706;49.036;12.112;2023-07-28T12:22:41;97175.22;;;24.89;57.16
21096;BME280;10706;49.036;12.112;2023-07-28T12:25:07;97175.56;;;24.75;57.95
21096;BME280;10706;49.036;12.112;2023-07-28T12:27:34;97175.44;;;24.96;58.35
21096;BME280;10706;49.036;12.112;2023-07-28T12:30:00;97177.66;;;24.20;59.50
21096;BME280;10706;49.036;12.112;2023-07-28T12:32:27;97186.31;;;24.22;61.14
21096;BME280;10706;49.036;12.112;2023-07-28T12:34:53;97180.63;;;23.81;63.55
21096;BME280;10706;49.036;12.112;2023-07-28T12:37:19;97179.97;;;23.63;64.75
21096;BME280;10706;49.036;12.112;2023-07-28T12:39:45;97185.53;;;23.46;66.12
21096;BME280;10706;49.036;12.112;2023-07-28T12:42:12;97187.22;;;23.38;66.77
21096;BME280;10706;49.036;12.112;2023-07-28T12:44:38;97190.72;;;23.81;64.86
21096;BME280;10706;49.036;12.112;2023-07-28T12:47:05;97190.91;;;25.29;61.79
21096;BME280;10706;49.036;12.112;2023-07-28T12:49:31;97178.13;;;26.17;56.31
21096;BME280;10706;49.036;12.112;2023-07-28T12:51:58;97179.03;;;27.76;53.01
21096;BME280;10706;49.036;12.112;2023-07-28T12:54:25;97176.13;;;28.07;49.39
21096;BME280;10706;49.036;12.112;2023-07-28T12:56:54;97191.38;;;26.95;52.33